createdAt,value
2018-04-13T00:01:50.767Z,68.00
2018-04-13T00:04:16.979Z,68.10
2018-04-13T00:06:49.406Z,68.60
2018-04-13T00:09:15.623Z,69.30
2018-04-13T00:11:53.952Z,69.90
2018-04-13T00:14:20.160Z,70.70
2018-04-13T00:16:46.434Z,71.00
2018-04-13T00:19:19.860Z,70.60
2018-04-13T00:21:46.090Z,70.60
2018-04-13T00:24:12.315Z,70.70
2018-04-13T00:26:44.639Z,70.40
2018-04-13T00:29:16.828Z,70.20
2018-04-13T00:31:43.457Z,70.90
2018-04-13T00:34:15.968Z,70.70
2018-04-13T00:36:48.709Z,70.70
2018-04-13T00:39:14.918Z,70.70
2018-04-13T00:41:41.133Z,71.00
2018-04-13T00:44:07.359Z,71.30
2018-04-13T00:46:39.542Z,71.40
2018-04-13T00:49:05.740Z,71.30
2018-04-13T00:51:32.795Z,71.50
2018-04-13T00:54:05.105Z,71.90
2018-04-13T00:56:43.893Z,72.50
2018-04-13T00:59:16.112Z,72.50
2018-04-13T01:01:42.322Z,72.50
2018-04-13T01:04:08.544Z,72.60
2018-04-13T01:06:34.766Z,72.90
2018-04-13T01:09:14.216Z,73.00
2018-04-13T01:11:40.800Z,74.00
2018-04-13T01:14:07.050Z,74.00
2018-04-13T01:16:39.299Z,74.20
2018-04-13T01:19:05.538Z,73.70
2018-04-13T01:21:31.751Z,74.10
2018-04-13T01:23:58.832Z,73.90
2018-04-13T01:26:25.050Z,73.70
2018-04-13T01:28:51.320Z,73.80
2018-04-13T01:31:17.531Z,73.50
2018-04-13T01:33:49.684Z,73.20
2018-04-13T01:36:15.923Z,73.00
2018-04-13T01:38:42.170Z,72.70
2018-04-13T01:41:08.764Z,72.20
2018-04-13T01:43:35.016Z,72.20
2018-04-13T01:46:01.230Z,72.30
2018-04-13T01:48:27.439Z,71.90
2018-04-13T01:50:53.681Z,70.60
2018-04-13T01:53:25.901Z,71.20
2018-04-13T01:55:52.121Z,71.50
2018-04-13T01:58:18.396Z,71.40
2018-04-13T02:00:50.599Z,70.70
2018-04-13T02:03:17.198Z,70.70
2018-04-13T02:05:43.430Z,70.70
2018-04-13T02:08:21.852Z,69.90
2018-04-13T02:10:48.104Z,70.30
2018-04-13T02:13:21.577Z,70.40
2018-04-13T02:15:53.918Z,70.90
2018-04-13T02:18:26.057Z,71.30
2018-04-13T02:20:52.302Z,71.40
2018-04-13T02:23:18.549Z,72.20
2018-04-13T02:25:44.761Z,72.40
2018-04-13T02:28:17.039Z,71.90
2018-04-13T02:30:43.281Z,72.50
2018-04-13T02:33:09.537Z,72.50
2018-04-13T02:35:41.838Z,72.60
2018-04-13T02:38:08.466Z,72.60
2018-04-13T02:40:41.052Z,72.30
2018-04-13T02:43:07.698Z,72.20
2018-04-13T02:45:33.911Z,72.20
2018-04-13T02:48:00.510Z,71.30
2018-04-13T02:50:32.620Z,71.30
2018-04-13T02:53:04.803Z,71.20
2018-04-13T02:55:36.930Z,70.50
2018-04-13T02:58:03.152Z,70.30
2018-04-13T03:00:35.302Z,70.20
2018-04-13T03:03:01.536Z,70.60
2018-04-13T03:05:33.856Z,70.10
2018-04-13T03:08:06.168Z,70.50
2018-04-13T03:10:38.518Z,71.30
2018-04-13T03:13:05.520Z,72.20
2018-04-13T03:15:31.754Z,72.40
2018-04-13T03:17:57.993Z,72.30
2018-04-13T03:20:24.601Z,71.90
2018-04-13T03:22:56.988Z,71.90
2018-04-13T03:25:23.947Z,72.20
2018-04-13T03:27:50.548Z,72.70
2018-04-13T03:30:16.754Z,72.70
2018-04-13T03:32:49.063Z,72.20
2018-04-13T03:35:15.263Z,72.10
2018-04-13T03:37:41.494Z,72.30
2018-04-13T03:40:07.733Z,71.90
2018-04-13T03:42:39.958Z,71.90
2018-04-13T03:45:06.189Z,72.30
2018-04-13T03:47:32.424Z,73.20
2018-04-13T03:49:58.746Z,73.00
2018-04-13T03:52:24.979Z,73.80
2018-04-13T03:54:51.186Z,74.30
2018-04-13T03:57:17.413Z,74.00
2018-04-13T03:59:49.590Z,74.00
2018-04-13T04:02:15.805Z,73.60
2018-04-13T04:04:42.027Z,73.80
2018-04-13T04:07:14.609Z,73.10
2018-04-13T04:09:47.924Z,73.10
2018-04-13T04:12:14.137Z,73.00
2018-04-13T04:14:40.372Z,73.10
2018-04-13T04:17:06.594Z,73.30
2018-04-13T04:32:55.393Z,71.10
2018-04-13T04:35:27.718Z,72.30
2018-04-13T04:37:53.966Z,70.60
2018-04-13T04:40:26.312Z,71.30
2018-04-13T04:42:52.574Z,71.70
2018-04-13T04:45:18.802Z,71.60
2018-04-13T04:47:45.040Z,71.50
2018-04-13T04:50:11.272Z,70.40
2018-04-13T04:52:43.595Z,70.30
2018-04-13T04:55:16.757Z,70.50
2018-04-13T04:57:49.349Z,69.40
2018-04-13T05:00:15.945Z,69.50
2018-04-13T05:02:48.142Z,69.60
2018-04-13T05:05:20.869Z,70.80
2018-04-13T05:07:47.097Z,70.80
2018-04-13T05:10:13.385Z,69.80
2018-04-13T05:12:46.020Z,68.30
2018-04-13T05:15:12.304Z,68.30
2018-04-13T05:17:44.597Z,67.70
2018-04-13T05:20:10.824Z,67.40
2018-04-13T05:22:37.086Z,67.40
2018-04-13T05:25:03.304Z,66.40
2018-04-13T05:27:29.562Z,67.00
2018-04-13T05:30:01.777Z,66.70
2018-04-13T05:32:40.207Z,66.90
2018-04-13T05:35:06.454Z,66.50
2018-04-13T05:37:32.635Z,66.50
2018-04-13T05:39:58.849Z,66.10
2018-04-13T05:42:25.121Z,65.70
2018-04-13T05:44:51.346Z,66.50
2018-04-13T05:47:23.629Z,65.90
2018-04-13T05:49:55.970Z,65.60
2018-04-13T05:52:28.270Z,65.30
2018-04-13T05:54:54.510Z,66.00
2018-04-13T05:57:26.701Z,66.40
2018-04-13T05:59:53.267Z,65.30
2018-04-13T06:02:19.468Z,65.30
2018-04-13T06:04:46.794Z,64.50
2018-04-13T06:07:13.021Z,64.50
2018-04-13T06:09:45.281Z,64.50
2018-04-13T06:12:23.590Z,64.40
2018-04-13T06:14:55.744Z,64.20
2018-04-13T06:17:28.030Z,64.50
2018-04-13T06:20:00.313Z,64.20
2018-04-13T06:22:40.607Z,64.30
2018-04-13T06:25:12.803Z,64.10
2018-04-13T06:27:39.038Z,64.00
2018-04-13T06:30:05.274Z,63.80
2018-04-13T06:32:31.454Z,64.50
2018-04-13T06:35:04.159Z,63.60
2018-04-13T06:37:36.314Z,63.50
2018-04-13T06:40:02.637Z,63.00
2018-04-13T06:42:29.209Z,61.60
2018-04-13T06:45:07.762Z,61.60
2018-04-13T06:47:46.102Z,62.20
2018-04-13T06:50:18.473Z,60.40
2018-04-13T06:52:50.718Z,60.20
2018-04-13T06:55:16.913Z,59.60
2018-04-13T06:58:01.416Z,59.90
2018-04-13T07:00:28.029Z,57.90
2018-04-13T07:03:01.333Z,57.80
2018-04-13T07:05:27.541Z,59.20
2018-04-13T07:07:53.757Z,60.60
2018-04-13T07:10:38.455Z,59.70
2018-04-13T07:13:04.701Z,59.30
2018-04-13T07:15:37.324Z,58.90
2018-04-13T07:18:03.548Z,58.90
2018-04-13T07:20:41.930Z,58.70
2018-04-13T07:23:20.298Z,58.30
2018-04-13T07:25:47.448Z,58.30
2018-04-13T07:28:13.679Z,58.40
2018-04-13T07:30:45.969Z,58.50
2018-04-13T07:33:24.270Z,58.00
2018-04-13T07:35:50.479Z,58.00
2018-04-13T07:38:22.662Z,57.70
2018-04-13T07:40:54.848Z,57.90
2018-04-13T07:43:36.429Z,57.80
2018-04-13T07:46:31.034Z,57.80
2018-04-13T07:48:57.266Z,58.30
2018-04-13T07:51:24.642Z,59.30
2018-04-13T07:53:57.001Z,59.30
2018-04-13T07:56:29.344Z,58.90
2018-04-13T07:59:02.097Z,58.90
2018-04-13T08:01:27.744Z,58.80
2018-04-13T08:03:59.941Z,58.90
2018-04-13T08:06:38.231Z,58.40
2018-04-13T08:09:10.936Z,59.30
2018-04-13T08:11:43.209Z,59.30
2018-04-13T08:14:09.417Z,58.20
2018-04-13T08:16:41.697Z,59.50
2018-04-13T08:19:13.987Z,60.00
2018-04-13T08:21:46.344Z,59.90
2018-04-13T08:24:13.173Z,58.70
2018-04-13T08:26:41.163Z,60.00
2018-04-13T08:29:13.550Z,60.50
2018-04-13T08:31:39.802Z,61.10
2018-04-13T08:34:06.038Z,60.60
2018-04-13T08:36:32.260Z,61.50
2018-04-13T08:38:58.459Z,61.10
2018-04-13T08:41:24.722Z,61.00
2018-04-13T08:43:56.842Z,61.20
2018-04-13T08:46:23.910Z,61.20
2018-04-13T08:48:56.360Z,60.50
2018-04-13T08:51:22.519Z,61.00
2018-04-13T08:53:54.815Z,61.10
2018-04-13T08:56:27.483Z,60.70
2018-04-13T08:58:53.798Z,60.70
2018-04-13T09:01:20.040Z,61.40
2018-04-13T09:03:52.309Z,61.00
2018-04-13T09:06:18.584Z,61.20
2018-04-13T09:08:50.794Z,61.50
2018-04-13T09:11:17.010Z,61.40
2018-04-13T09:13:49.213Z,61.90
2018-04-13T09:16:22.052Z,61.20
2018-04-13T09:19:00.386Z,61.10
2018-04-13T09:21:26.601Z,60.20
2018-04-13T09:23:58.992Z,59.10
2018-04-13T09:26:31.165Z,58.70
2018-04-13T09:28:57.387Z,59.10
2018-04-13T09:31:29.654Z,58.20
2018-04-13T09:33:55.870Z,58.70
2018-04-13T09:36:28.117Z,59.80
2018-04-13T09:38:54.330Z,59.70
2018-04-13T09:41:20.550Z,60.00
2018-04-13T09:43:52.743Z,59.30
2018-04-13T09:46:25.054Z,57.90
2018-04-13T09:48:51.274Z,56.40
2018-04-13T09:51:35.874Z,56.50
2018-04-13T09:54:08.235Z,56.40
2018-04-13T09:56:46.700Z,57.30
2018-04-13T09:59:18.879Z,56.80
2018-04-13T10:01:45.136Z,56.40
2018-04-13T10:04:18.330Z,54.40
2018-04-13T10:06:50.499Z,54.90
2018-04-13T10:09:17.101Z,54.40
2018-04-13T10:11:55.515Z,54.40
2018-04-13T10:14:40.340Z,55.00
2018-04-13T10:17:13.350Z,53.80
2018-04-13T10:19:39.568Z,52.90
2018-04-13T10:22:05.803Z,52.80
2018-04-13T10:24:37.965Z,52.50
2018-04-13T10:27:16.490Z,51.00
2018-04-13T10:29:42.690Z,48.80
2018-04-13T10:32:08.917Z,49.20
2018-04-13T10:34:41.245Z,46.50
2018-04-13T10:37:07.492Z,48.00
2018-04-13T10:39:39.834Z,49.70
2018-04-13T10:42:12.170Z,51.50
2018-04-13T10:44:44.582Z,52.90
2018-04-13T10:47:22.940Z,53.80
2018-04-13T10:49:55.241Z,54.70
2018-04-13T10:52:27.561Z,55.00
2018-04-13T10:54:54.754Z,62.80
2018-04-13T10:57:26.947Z,62.80
2018-04-13T10:59:53.154Z,61.10
2018-04-13T11:02:31.464Z,62.20
2018-04-13T11:04:57.683Z,59.70
2018-04-13T11:07:29.834Z,60.50
2018-04-13T11:10:02.050Z,60.00
2018-04-13T11:12:34.253Z,61.10
2018-04-13T11:15:00.820Z,65.00
2018-04-13T11:17:33.181Z,65.00
2018-04-13T11:20:05.329Z,66.40
2018-04-13T11:22:43.833Z,64.80
2018-04-13T11:25:10.064Z,63.40
2018-04-13T11:27:48.775Z,65.20
2018-04-13T11:30:21.096Z,65.20
2018-04-13T11:32:59.405Z,66.10
2018-04-13T11:35:31.750Z,67.60
2018-04-13T11:38:04.458Z,69.50
2018-04-13T11:40:30.660Z,69.50
2018-04-13T11:42:56.885Z,69.40
2018-04-13T11:45:23.125Z,71.60
2018-04-13T11:47:49.404Z,68.80
2018-04-13T11:50:15.611Z,68.60
2018-04-13T11:52:47.841Z,70.50
2018-04-13T11:55:20.244Z,72.10
2018-04-13T11:57:52.525Z,70.80
2018-04-13T12:00:24.930Z,71.90
2018-04-13T12:02:57.202Z,73.30
2018-04-13T12:05:36.058Z,75.10
2018-04-13T12:08:02.242Z,73.00
2018-04-13T12:10:28.480Z,77.20
2018-04-13T12:12:54.701Z,77.60
2018-04-13T12:15:20.903Z,76.60
2018-04-13T12:17:47.141Z,78.60
2018-04-13T12:20:13.341Z,76.70
2018-04-13T12:22:39.569Z,78.60
2018-04-13T12:25:05.769Z,79.50
2018-04-13T12:27:32.370Z,78.30
2018-04-13T12:29:58.582Z,78.30
2018-04-13T12:32:24.834Z,76.90
2018-04-13T12:34:51.033Z,74.90
2018-04-13T12:37:17.245Z,75.90
2018-04-13T12:39:43.453Z,76.50
2018-04-13T12:42:09.735Z,77.20
2018-04-13T12:44:35.950Z,76.90
2018-04-13T12:47:02.176Z,77.90
2018-04-13T12:49:29.005Z,76.70
2018-04-13T12:51:55.248Z,78.70
2018-04-13T12:54:21.461Z,79.00
2018-04-13T12:56:47.882Z,80.10
2018-04-13T12:59:14.022Z,79.90
2018-04-13T13:01:40.240Z,78.30
2018-04-13T13:04:06.538Z,80.90
2018-04-13T13:06:33.119Z,79.10
2018-04-13T13:08:59.386Z,79.10
2018-04-13T13:11:25.621Z,76.50
2018-04-13T13:13:51.817Z,75.30
2018-04-13T13:16:18.067Z,73.70
2018-04-13T13:18:44.352Z,74.40
2018-04-13T13:21:10.609Z,74.90
2018-04-13T13:23:36.856Z,75.10
2018-04-13T13:26:03.081Z,73.70
2018-04-13T13:28:29.314Z,73.50
2018-04-13T13:30:55.555Z,73.00
2018-04-13T13:33:21.795Z,72.40
2018-04-13T13:35:48.061Z,72.70
2018-04-13T13:38:14.328Z,72.30
2018-04-13T13:40:40.572Z,73.30
2018-04-13T13:56:09.143Z,72.30
2018-04-13T13:58:35.737Z,70.00
2018-04-13T14:01:02.016Z,70.00
2018-04-13T14:03:28.254Z,70.50
2018-04-13T14:05:54.471Z,70.50
2018-04-13T14:08:20.707Z,71.70
2018-04-13T14:10:46.929Z,72.30
2018-04-13T14:13:13.177Z,72.10
2018-04-13T14:15:39.450Z,74.70
2018-04-13T14:18:05.677Z,73.60
2018-04-13T14:20:31.921Z,71.10
2018-04-13T14:22:58.808Z,73.50
2018-04-13T14:25:25.746Z,75.20
2018-04-13T14:27:51.954Z,71.60
2018-04-13T14:30:18.568Z,72.60
2018-04-13T14:32:45.202Z,72.70
2018-04-13T14:35:11.384Z,72.70
2018-04-13T14:37:37.598Z,68.80
2018-04-13T14:40:03.860Z,68.00
2018-04-13T14:42:30.085Z,66.50
2018-04-13T14:44:56.321Z,64.60
2018-04-13T14:47:22.631Z,62.80
2018-04-13T14:49:48.858Z,62.80
2018-04-13T14:52:15.104Z,62.60
2018-04-13T14:54:41.347Z,64.00
2018-04-13T14:57:07.594Z,64.00
2018-04-13T14:59:33.802Z,65.40
2018-04-13T15:02:00.271Z,65.00
2018-04-13T15:04:26.550Z,64.50
2018-04-13T15:06:52.817Z,65.10
2018-04-13T15:09:19.014Z,66.80
2018-04-13T15:11:45.249Z,65.80
2018-04-13T15:14:11.472Z,64.30
2018-04-13T15:16:37.666Z,63.00
2018-04-13T15:19:03.950Z,61.60
2018-04-13T15:21:30.177Z,59.30
2018-04-13T15:23:56.402Z,59.50
2018-04-13T15:26:22.643Z,60.60
2018-04-13T15:28:49.251Z,60.60
2018-04-13T15:31:15.447Z,60.60
2018-04-13T15:33:41.731Z,60.20
2018-04-13T15:36:07.975Z,62.30
2018-04-13T15:38:34.239Z,60.30
2018-04-13T15:41:00.467Z,60.00
2018-04-13T15:43:26.691Z,59.20
2018-04-13T15:45:52.973Z,61.90
2018-04-13T15:48:19.186Z,62.80
2018-04-13T15:50:45.451Z,60.60
2018-04-13T15:53:11.742Z,60.80
2018-04-13T15:55:37.969Z,61.50
2018-04-13T15:58:04.834Z,60.60
2018-04-13T16:00:31.023Z,62.00
2018-04-13T16:02:57.267Z,63.30
2018-04-13T16:05:24.377Z,64.50
2018-04-13T16:07:50.590Z,66.70
2018-04-13T16:10:16.869Z,67.40
2018-04-13T16:12:43.136Z,67.20
2018-04-13T16:15:09.380Z,67.20
2018-04-13T16:17:35.613Z,66.20
2018-04-13T16:20:01.848Z,65.60
2018-04-13T16:22:28.076Z,66.40
2018-04-13T16:24:54.349Z,67.30
2018-04-13T16:27:20.624Z,65.60
2018-04-13T16:29:46.832Z,65.10
2018-04-13T16:32:13.490Z,65.00
2018-04-13T16:34:39.702Z,65.00
2018-04-13T16:37:06.370Z,64.70
2018-04-13T16:39:32.622Z,64.70
2018-04-13T16:41:58.900Z,64.90
2018-04-13T16:44:25.154Z,64.40
2018-04-13T16:46:52.392Z,64.70
2018-04-13T16:49:18.622Z,67.10
2018-04-13T16:51:44.894Z,65.80
2018-04-13T16:54:11.142Z,66.10
2018-04-13T16:56:37.397Z,65.20
2018-04-13T16:59:03.666Z,66.40
2018-04-13T17:01:29.882Z,65.90
2018-04-13T17:03:56.147Z,65.30
2018-04-13T17:06:22.408Z,65.10
2018-04-13T17:08:49.625Z,67.30
2018-04-13T17:11:15.883Z,66.30
2018-04-13T17:13:42.109Z,66.30
2018-04-13T17:16:08.759Z,67.20
2018-04-13T17:18:35.023Z,67.20
2018-04-13T17:21:01.255Z,66.20
2018-04-13T17:23:27.508Z,66.80
2018-04-13T17:25:53.747Z,67.00
2018-04-13T17:28:19.967Z,68.20
2018-04-13T17:30:46.237Z,68.00
2018-04-13T17:33:12.449Z,68.60
2018-04-13T17:35:39.053Z,68.60
2018-04-13T17:38:05.290Z,68.60
2018-04-13T17:40:31.568Z,69.10
2018-04-13T17:42:58.157Z,68.90
2018-04-13T17:45:24.423Z,68.90
2018-04-13T17:47:50.678Z,69.50
2018-04-13T17:50:16.972Z,70.70
2018-04-13T17:52:43.226Z,72.00
2018-04-13T17:55:09.472Z,71.10
2018-04-13T17:57:35.702Z,71.20
2018-04-13T18:00:02.048Z,71.70
2018-04-13T18:02:28.305Z,71.20
2018-04-13T18:04:55.335Z,71.80
2018-04-13T18:07:21.621Z,71.90
2018-04-13T18:09:47.939Z,71.90
2018-04-13T18:12:14.261Z,72.10
2018-04-13T18:14:40.567Z,71.90
2018-04-13T18:17:07.264Z,72.40
2018-04-13T18:19:33.546Z,72.40
2018-04-13T18:21:59.892Z,72.70
2018-04-13T18:24:26.250Z,73.00
2018-04-13T18:26:52.531Z,73.50
2018-04-13T18:29:20.126Z,73.90
2018-04-13T18:31:46.503Z,73.90
2018-04-13T18:34:12.918Z,74.20
2018-04-13T18:36:40.005Z,74.40
2018-04-13T18:39:06.420Z,74.50
2018-04-13T18:41:33.623Z,74.50
2018-04-13T18:43:59.880Z,74.50
2018-04-13T18:46:26.087Z,73.40
2018-04-13T18:48:52.339Z,74.50
2018-04-13T18:51:18.717Z,76.60
2018-04-13T18:53:46.374Z,77.30
2018-04-13T18:56:13.212Z,76.50
2018-04-13T18:58:40.030Z,76.40
2018-04-13T19:01:06.364Z,76.40
2018-04-13T19:03:33.543Z,76.60
2018-04-13T19:05:59.829Z,75.80
2018-04-13T19:08:26.707Z,75.40
2018-04-13T19:10:53.151Z,76.60
2018-04-13T19:13:19.701Z,76.60
2018-04-13T19:15:53.094Z,77.10
2018-04-13T19:18:23.436Z,77.20
2018-04-13T19:20:50.815Z,77.20
2018-04-13T19:23:17.022Z,77.40
2018-04-13T19:25:44.893Z,77.50
2018-04-13T19:28:11.113Z,77.70
2018-04-13T19:30:37.562Z,77.90
2018-04-13T19:33:04.213Z,77.70
2018-04-13T19:35:31.670Z,76.80
2018-04-13T19:37:59.642Z,78.10
2018-04-13T19:40:29.702Z,76.10
2018-04-13T19:42:56.943Z,76.80
2018-04-13T19:45:23.732Z,77.50
2018-04-13T19:47:49.956Z,77.50
2018-04-13T19:50:17.197Z,77.80
2018-04-13T19:52:44.623Z,77.70
2018-04-13T19:55:15.601Z,77.90
2018-04-13T19:57:50.197Z,77.80
2018-04-13T20:00:16.700Z,78.10
2018-04-13T20:02:43.317Z,78.80
2018-04-13T20:05:09.582Z,78.80
2018-04-13T20:07:36.282Z,78.80
2018-04-13T20:10:02.556Z,78.80
2018-04-13T20:12:29.227Z,77.70
2018-04-13T20:14:55.509Z,77.70
2018-04-13T20:17:22.289Z,77.90
2018-04-13T20:19:48.735Z,77.90
2018-04-13T20:22:15.059Z,78.20
2018-04-13T20:24:41.296Z,78.10
2018-04-13T20:27:07.557Z,77.80
2018-04-13T20:29:33.841Z,78.70
2018-04-13T20:32:00.894Z,78.90
2018-04-13T20:34:27.143Z,79.10
2018-04-13T20:36:53.367Z,79.30
2018-04-13T20:39:19.583Z,79.20
2018-04-13T20:41:45.835Z,79.50
2018-04-13T20:44:12.023Z,79.10
2018-04-13T20:46:38.239Z,79.70
2018-04-13T20:49:04.566Z,79.60
2018-04-13T20:51:30.766Z,79.60
2018-04-13T20:53:56.989Z,79.60
2018-04-13T20:56:23.642Z,79.80
2018-04-13T20:58:50.214Z,79.90
2018-04-13T21:01:16.511Z,79.90
2018-04-13T21:03:43.631Z,80.70
2018-04-13T21:06:09.923Z,80.80
2018-04-13T21:08:36.200Z,80.80
2018-04-13T21:11:02.411Z,80.90
2018-04-13T21:13:28.611Z,81.10
2018-04-13T21:15:54.848Z,81.10
2018-04-13T21:18:21.042Z,81.50
2018-04-13T21:20:47.244Z,81.40
2018-04-13T21:23:13.524Z,81.60
2018-04-13T21:25:39.743Z,81.60
2018-04-13T21:28:05.968Z,81.50
2018-04-13T21:30:32.206Z,81.30
2018-04-13T21:32:58.507Z,81.10
2018-04-13T21:35:25.168Z,81.00
2018-04-13T21:37:51.448Z,81.00
2018-04-13T21:40:17.716Z,81.30
2018-04-13T21:42:43.905Z,81.40
2018-04-13T21:45:10.129Z,81.50
2018-04-13T21:47:36.309Z,81.60
2018-04-13T21:50:02.579Z,82.10
2018-04-13T21:52:28.825Z,81.90
2018-04-13T21:54:55.026Z,81.50
2018-04-13T21:57:21.221Z,81.40
2018-04-13T21:59:48.312Z,81.90
2018-04-13T22:02:14.532Z,82.20
2018-04-13T22:04:41.730Z,81.80
2018-04-13T22:07:07.955Z,81.70
2018-04-13T22:09:35.145Z,81.90
2018-04-13T22:12:01.342Z,81.70
2018-04-13T22:14:39.825Z,81.80
2018-04-13T22:17:06.042Z,82.10
2018-04-13T22:19:32.246Z,82.50
2018-04-13T22:21:58.495Z,82.30
2018-04-13T22:24:24.707Z,82.30
2018-04-13T22:26:50.903Z,82.30
2018-04-13T22:29:17.129Z,82.00
2018-04-13T22:31:43.334Z,81.30
2018-04-13T22:34:09.888Z,81.50
2018-04-13T22:36:36.142Z,81.50
2018-04-13T22:39:02.424Z,81.80
2018-04-13T22:41:29.002Z,83.30
2018-04-13T22:43:55.227Z,83.30
2018-04-13T22:46:21.430Z,83.00
2018-04-13T22:48:47.648Z,82.90
2018-04-13T22:51:14.260Z,83.10
2018-04-13T22:53:40.482Z,83.10
2018-04-13T22:56:06.763Z,82.90
2018-04-13T22:58:32.977Z,82.30
2018-04-13T23:00:59.186Z,82.50
2018-04-13T23:03:25.808Z,82.50
2018-04-13T23:05:52.041Z,82.50
2018-04-13T23:08:18.245Z,82.20
2018-04-13T23:10:44.486Z,82.70
2018-04-13T23:13:10.706Z,82.50
2018-04-13T23:15:36.902Z,82.10
2018-04-13T23:18:03.158Z,82.30
2018-04-13T23:20:29.342Z,82.80
2018-04-13T23:22:55.526Z,82.30
2018-04-13T23:25:21.766Z,82.70
2018-04-13T23:27:47.961Z,82.40
2018-04-13T23:30:14.164Z,83.30
2018-04-13T23:32:40.388Z,83.00
2018-04-13T23:35:06.590Z,83.20
2018-04-13T23:37:32.757Z,83.30
2018-04-13T23:39:58.986Z,83.00
2018-04-13T23:42:25.171Z,82.70
2018-04-13T23:44:51.713Z,82.60
2018-04-13T23:47:18.290Z,82.80
2018-04-13T23:49:44.492Z,82.80
2018-04-13T23:52:10.689Z,83.00
2018-04-13T23:54:37.253Z,82.80
2018-04-13T23:57:03.465Z,82.80
2018-04-13T23:59:29.646Z,82.90
